createdAt,value
2018-05-10T00:00:29.414Z,11.00
2018-05-10T00:04:32.141Z,11.60
2018-05-10T00:08:35.733Z,10.53
2018-05-10T00:12:38.448Z,9.17
2018-05-10T00:16:41.975Z,10.03
2018-05-10T00:20:44.692Z,10.50
2018-05-10T00:24:47.449Z,10.53
2018-05-10T00:28:50.975Z,9.87
2018-05-10T00:32:55.474Z,10.40
2018-05-10T00:36:58.197Z,8.80
2018-05-10T00:41:01.773Z,9.40
2018-05-10T00:45:04.486Z,9.93
2018-05-10T00:49:07.247Z,9.40
2018-05-10T00:53:09.986Z,9.20
2018-05-10T00:57:12.882Z,10.77
2018-05-10T01:01:15.677Z,9.90
2018-05-10T01:05:18.538Z,11.13
2018-05-10T01:09:21.247Z,8.03
2018-05-10T01:13:25.325Z,10.77
2018-05-10T01:17:28.226Z,7.60
2018-05-10T01:21:31.088Z,9.23
2018-05-10T01:25:33.811Z,8.73
2018-05-10T01:29:36.793Z,8.07
2018-05-10T01:33:39.586Z,8.17
2018-05-10T01:37:42.529Z,8.67
2018-05-10T01:41:46.037Z,8.80
2018-05-10T01:45:49.622Z,8.57
2018-05-10T01:49:52.350Z,10.80
2018-05-10T01:53:55.907Z,9.70
2018-05-10T01:57:58.653Z,8.10
2018-05-10T02:02:02.174Z,9.17
2018-05-10T02:06:05.685Z,7.37
2018-05-10T02:10:09.428Z,8.47
2018-05-10T02:14:12.207Z,9.60
2018-05-10T02:18:15.789Z,9.40
2018-05-10T02:22:18.538Z,9.60
2018-05-10T02:26:21.395Z,8.30
2018-05-10T02:30:24.210Z,8.23
2018-05-10T02:34:27.793Z,8.50
2018-05-10T02:38:30.498Z,10.23
2018-05-10T02:42:33.339Z,8.60
2018-05-10T02:46:36.142Z,9.20
2018-05-10T02:50:38.921Z,8.83
2018-05-10T02:54:42.416Z,9.30
2018-05-10T02:58:45.231Z,9.03
2018-05-10T03:02:48.708Z,7.70
2018-05-10T03:06:51.524Z,8.73
2018-05-10T03:10:54.241Z,9.13
2018-05-10T03:14:57.717Z,8.90
2018-05-10T03:19:00.444Z,8.23
2018-05-10T03:23:03.208Z,9.13
2018-05-10T03:27:06.730Z,8.33
2018-05-10T03:31:09.526Z,7.90
2018-05-10T03:35:12.259Z,9.80
2018-05-10T03:39:15.249Z,9.90
2018-05-10T03:43:17.975Z,8.33
2018-05-10T03:47:20.961Z,8.50
2018-05-10T03:51:23.711Z,9.67
2018-05-10T03:55:26.673Z,9.30
2018-05-10T03:59:30.164Z,9.47
2018-05-10T04:03:57.785Z,10.03
2018-05-10T04:08:12.669Z,13.13
2018-05-10T04:12:15.490Z,9.93
2018-05-10T04:16:19.239Z,9.40
2018-05-10T04:20:22.007Z,9.63
2018-05-10T04:24:25.751Z,9.27
2018-05-10T04:28:28.459Z,9.73
2018-05-10T04:32:31.415Z,9.40
2018-05-10T04:36:34.123Z,9.47
2018-05-10T04:40:37.695Z,12.03
2018-05-10T04:44:40.438Z,7.93
2018-05-10T04:48:43.990Z,7.63
2018-05-10T04:52:47.824Z,7.50
2018-05-10T04:56:50.706Z,7.93
2018-05-10T05:00:53.441Z,8.23
2018-05-10T05:04:56.254Z,7.97
2018-05-10T05:08:59.019Z,7.90
2018-05-10T05:13:01.749Z,9.37
2018-05-10T05:17:04.579Z,8.83
2018-05-10T05:21:07.473Z,9.70
2018-05-10T05:25:10.202Z,8.70
2018-05-10T05:29:16.199Z,7.30
2018-05-10T05:33:19.099Z,8.43
2018-05-10T05:37:23.205Z,12.90
2018-05-10T05:41:27.513Z,9.00
2018-05-10T05:45:32.588Z,7.90
2018-05-10T05:49:38.002Z,8.00
2018-05-10T05:53:45.886Z,9.50
2018-05-10T05:57:52.092Z,9.00
2018-05-10T06:01:55.070Z,9.03
2018-05-10T06:05:58.608Z,8.83
2018-05-10T06:10:01.389Z,9.33
2018-05-10T06:14:04.165Z,9.07
2018-05-10T06:18:06.884Z,10.30
2018-05-10T06:22:10.365Z,8.77
2018-05-10T06:26:13.169Z,10.80
2018-05-10T06:30:15.951Z,9.40
2018-05-10T06:34:18.755Z,15.40
2018-05-10T06:38:22.285Z,7.87
2018-05-10T06:42:25.050Z,7.47
2018-05-10T06:46:27.766Z,7.43
2018-05-10T06:50:30.567Z,6.80
2018-05-10T06:54:33.371Z,7.10
2018-05-10T06:58:36.034Z,6.60
2018-05-10T07:02:38.829Z,7.87
2018-05-10T07:06:41.581Z,6.20
2018-05-10T07:10:45.138Z,7.20
2018-05-10T07:14:47.940Z,6.97
2018-05-10T07:18:51.662Z,10.30
2018-05-10T07:22:54.366Z,11.43
2018-05-10T07:26:57.086Z,5.90
2018-05-10T07:30:59.929Z,6.90
2018-05-10T07:35:02.641Z,7.27
2018-05-10T07:39:05.468Z,6.80
2018-05-10T07:43:08.179Z,7.93
2018-05-10T07:47:10.902Z,6.83
2018-05-10T07:51:14.431Z,6.97
2018-05-10T07:55:17.229Z,7.57
2018-05-10T07:59:20.775Z,6.60
2018-05-10T08:03:23.586Z,7.40
2018-05-10T08:07:26.425Z,10.03
2018-05-10T08:11:29.949Z,6.53
2018-05-10T08:15:33.014Z,6.50
2018-05-10T08:19:35.869Z,7.20
2018-05-10T08:23:48.612Z,6.80
2018-05-10T08:27:51.337Z,8.10
2018-05-10T08:31:55.753Z,6.40
2018-05-10T08:36:01.668Z,5.90
2018-05-10T08:40:04.730Z,8.30
2018-05-10T08:44:07.814Z,5.90
2018-05-10T08:48:10.615Z,5.83
2018-05-10T08:52:17.405Z,6.23
2018-05-10T08:56:23.892Z,5.90
2018-05-10T09:00:26.687Z,5.83
2018-05-10T09:04:29.475Z,6.40
2018-05-10T09:08:32.219Z,6.73
2018-05-10T09:12:35.009Z,7.17
2018-05-10T09:16:38.232Z,6.17
2018-05-10T09:20:41.744Z,6.73
2018-05-10T09:24:45.245Z,6.23
2018-05-10T09:28:47.982Z,6.50
2018-05-10T09:32:50.720Z,6.50
2018-05-10T09:36:53.489Z,5.73
2018-05-10T09:40:56.265Z,7.07
2018-05-10T09:44:59.094Z,5.27
2018-05-10T09:49:02.103Z,6.57
2018-05-10T09:53:04.872Z,5.47
2018-05-10T09:57:07.645Z,6.17
2018-05-10T10:01:23.186Z,10.30
2018-05-10T10:05:25.948Z,5.50
2018-05-10T10:09:44.196Z,6.40
2018-05-10T10:13:58.711Z,5.67
2018-05-10T10:18:03.044Z,6.67
2018-05-10T10:22:05.878Z,5.00
2018-05-10T10:26:08.849Z,4.43
2018-05-10T10:30:12.363Z,5.87
2018-05-10T10:34:15.285Z,6.10
2018-05-10T10:38:19.092Z,5.27
2018-05-10T10:42:21.759Z,4.80
2018-05-10T10:46:24.675Z,4.37
2018-05-10T10:50:29.145Z,5.30
2018-05-10T10:54:32.041Z,5.20
2018-05-10T10:58:35.653Z,5.07
2018-05-10T11:02:40.142Z,5.50
2018-05-10T11:06:43.998Z,6.80
2018-05-10T11:10:46.866Z,5.47
2018-05-10T11:14:49.693Z,5.47
2018-05-10T11:18:52.623Z,5.00
2018-05-10T11:22:55.373Z,6.10
2018-05-10T11:26:58.451Z,6.20
2018-05-10T11:31:01.327Z,7.10
2018-05-10T11:35:04.243Z,5.53
2018-05-10T11:39:07.112Z,6.93
2018-05-10T11:43:09.796Z,7.30
2018-05-10T11:47:12.600Z,4.20
2018-05-10T11:51:15.973Z,6.80
2018-05-10T11:55:18.841Z,5.63
2018-05-10T11:59:21.633Z,9.63
2018-05-10T12:03:24.388Z,4.60
2018-05-10T12:07:27.307Z,5.37
2018-05-10T12:11:30.121Z,5.73
2018-05-10T12:15:33.875Z,7.40
2018-05-10T12:19:36.861Z,5.27
2018-05-10T12:23:39.702Z,5.73
2018-05-10T12:27:42.762Z,5.70
2018-05-10T12:31:45.483Z,5.40
2018-05-10T12:35:48.207Z,6.20
2018-05-10T12:39:51.368Z,5.10
2018-05-10T12:43:54.367Z,4.90
2018-05-10T12:47:57.473Z,5.00
2018-05-10T12:52:00.296Z,5.03
2018-05-10T12:56:03.157Z,4.57
2018-05-10T13:00:07.064Z,7.70
2018-05-10T13:04:09.891Z,4.43
2018-05-10T13:08:13.847Z,7.03
2018-05-10T13:12:16.798Z,5.23
2018-05-10T13:16:20.412Z,5.33
2018-05-10T13:20:24.487Z,5.07
2018-05-10T13:24:27.290Z,5.17
2018-05-10T13:28:30.127Z,4.43
2018-05-10T13:32:33.768Z,4.70
2018-05-10T13:36:36.500Z,5.47
2018-05-10T13:40:40.324Z,4.90
2018-05-10T13:44:43.099Z,4.40
2018-05-10T13:48:45.839Z,4.43
2018-05-10T13:52:48.625Z,4.70
2018-05-10T13:56:51.469Z,4.50
2018-05-10T14:00:57.172Z,4.40
2018-05-10T14:04:59.945Z,4.23
2018-05-10T14:09:02.788Z,4.87
2018-05-10T14:13:05.628Z,4.20
2018-05-10T14:17:09.140Z,4.60
2018-05-10T14:21:12.704Z,5.50
2018-05-10T14:25:15.584Z,4.50
2018-05-10T14:29:19.126Z,5.60
2018-05-10T14:33:23.014Z,4.97
2018-05-10T14:37:25.794Z,5.17
2018-05-10T14:41:30.390Z,5.60
2018-05-10T14:45:33.188Z,7.87
2018-05-10T14:49:35.962Z,4.90
2018-05-10T14:53:38.757Z,7.03
2018-05-10T14:57:41.563Z,6.03
2018-05-10T15:01:48.140Z,5.10
2018-05-10T15:05:50.901Z,6.57
2018-05-10T15:09:53.749Z,4.97
2018-05-10T15:13:57.607Z,5.20
2018-05-10T15:18:00.809Z,5.70
2018-05-10T15:22:04.948Z,5.10
2018-05-10T15:26:07.918Z,5.40
2018-05-10T15:30:10.902Z,5.17
2018-05-10T15:34:14.287Z,5.50
2018-05-10T15:38:17.022Z,5.97
2018-05-10T15:42:20.660Z,4.67
2018-05-10T15:46:24.161Z,5.50
2018-05-10T15:50:26.964Z,5.90
2018-05-10T15:54:29.740Z,5.17
2018-05-10T15:58:32.537Z,5.87
2018-05-10T16:02:36.405Z,5.60
2018-05-10T16:06:39.238Z,7.83
2018-05-10T16:10:43.519Z,5.73
2018-05-10T16:14:46.389Z,5.50
2018-05-10T16:18:49.134Z,6.37
2018-05-10T16:22:51.952Z,5.07
2018-05-10T16:26:56.486Z,5.80
2018-05-10T16:30:59.983Z,5.13
2018-05-10T16:35:03.196Z,6.27
2018-05-10T16:39:06.311Z,5.20
2018-05-10T16:43:09.274Z,6.00
2018-05-10T16:47:12.042Z,6.07
2018-05-10T16:51:14.901Z,5.57
2018-05-10T16:55:17.610Z,6.20
2018-05-10T16:59:21.302Z,5.87
2018-05-10T17:03:25.126Z,5.70
2018-05-10T17:07:27.896Z,6.10
2018-05-10T17:11:30.701Z,5.70
2018-05-10T17:15:33.510Z,5.73
2018-05-10T17:19:36.485Z,6.07
2018-05-10T17:23:39.271Z,8.80
2018-05-10T17:27:42.071Z,7.63
2018-05-10T17:31:44.851Z,9.30
2018-05-10T17:35:47.591Z,9.07
2018-05-10T17:39:50.639Z,10.17
2018-05-10T17:43:54.517Z,10.47
2018-05-10T17:47:58.257Z,8.30
2018-05-10T17:52:01.257Z,7.57
2018-05-10T17:56:04.114Z,13.90
2018-05-10T18:00:06.872Z,9.40
2018-05-10T18:04:09.664Z,20.93
2018-05-10T18:08:12.497Z,10.90
2018-05-10T18:12:15.553Z,9.53
2018-05-10T18:16:18.352Z,11.00
2018-05-10T18:20:21.082Z,9.00
2018-05-10T18:24:24.946Z,9.10
2018-05-10T18:28:27.856Z,11.00
2018-05-10T18:32:30.625Z,10.37
2018-05-10T18:36:34.749Z,9.97
2018-05-10T18:40:39.542Z,8.57
2018-05-10T18:44:44.820Z,7.63
2018-05-10T18:48:47.846Z,7.20
2018-05-10T18:52:51.136Z,11.60
2018-05-10T18:56:54.742Z,7.70
2018-05-10T19:00:57.497Z,6.17
2018-05-10T19:05:00.528Z,7.23
2018-05-10T19:09:03.732Z,9.10
2018-05-10T19:13:06.543Z,12.50
2018-05-10T19:17:09.403Z,11.07
2018-05-10T19:21:12.368Z,6.90
2018-05-10T19:25:15.996Z,7.87
2018-05-10T19:29:19.075Z,8.10
2018-05-10T19:33:21.905Z,8.30
2018-05-10T19:37:24.716Z,9.33
2018-05-10T19:41:27.970Z,8.30
2018-05-10T19:45:30.955Z,7.47
2018-05-10T19:49:33.883Z,8.67
2018-05-10T19:58:05.677Z,7.97
2018-05-10T20:02:08.713Z,7.63
2018-05-10T20:06:11.973Z,9.43
2018-05-10T20:10:14.823Z,8.00
2018-05-10T20:14:17.664Z,7.90
2018-05-10T20:18:21.276Z,7.23
2018-05-10T20:22:24.790Z,12.07
2018-05-10T20:26:27.584Z,9.60
2018-05-10T20:30:30.312Z,8.00
2018-05-10T20:34:33.247Z,8.00
2018-05-10T20:38:36.223Z,11.90
2018-05-10T20:42:39.225Z,11.30
2018-05-10T20:46:41.992Z,8.37
2018-05-10T20:50:45.505Z,10.57
2018-05-10T20:54:49.199Z,8.67
2018-05-10T20:58:53.010Z,8.13
2018-05-10T21:02:57.005Z,8.60
2018-05-10T21:07:00.529Z,9.33
2018-05-10T21:11:03.895Z,7.87
2018-05-10T21:15:06.779Z,8.83
2018-05-10T21:19:09.681Z,12.73
2018-05-10T21:23:13.542Z,10.77
2018-05-10T21:27:17.231Z,9.33
2018-05-10T21:31:21.124Z,7.57
2018-05-10T21:35:23.975Z,10.20
2018-05-10T21:39:26.745Z,9.90
2018-05-10T21:43:29.587Z,10.73
2018-05-10T21:47:32.334Z,9.70
2018-05-10T21:51:36.357Z,11.33
2018-05-10T21:55:39.132Z,13.10
2018-05-10T21:59:41.957Z,17.50
2018-05-10T22:03:44.718Z,14.77
2018-05-10T22:07:47.505Z,11.77
2018-05-10T22:11:51.092Z,10.87
2018-05-10T22:15:54.653Z,12.10
2018-05-10T22:19:57.402Z,11.47
2018-05-10T22:24:01.036Z,17.60
2018-05-10T22:28:03.851Z,14.43
2018-05-10T22:32:06.763Z,12.37
2018-05-10T22:36:09.545Z,14.33
2018-05-10T22:40:12.339Z,13.73
2018-05-10T22:44:15.141Z,17.07
2018-05-10T22:48:17.915Z,14.90
2018-05-10T22:52:20.708Z,21.63
2018-05-10T22:56:24.282Z,7.13
2018-05-10T23:00:27.864Z,10.20
2018-05-10T23:04:30.653Z,9.70
2018-05-10T23:08:34.387Z,13.33
2018-05-10T23:12:37.122Z,10.70
2018-05-10T23:16:39.911Z,9.97
2018-05-10T23:20:42.624Z,12.23
2018-05-10T23:24:45.420Z,11.30
2018-05-10T23:28:48.165Z,9.30
2018-05-10T23:32:50.894Z,11.00
2018-05-10T23:36:53.659Z,11.67
2018-05-10T23:40:56.399Z,12.27
2018-05-10T23:44:59.325Z,11.87
2018-05-10T23:49:02.118Z,11.20
2018-05-10T23:53:04.854Z,12.27
2018-05-10T23:57:07.739Z,13.30
